Dan Viking — OVIL2 — position and weather

sailwx.info

Track history (hours):
 
Tides and Currents Weather Stations Pressure Air Temp Water Temp Dewpoint Dewpoint Depression Visibility Wind Speed Wind Dir Waves Ship Positions

Dan Viking

Last reported at 2014-Sep-18 06:18 UTC. Time now 2014-Sep-18 11:37 UTC.
Position N 56°25' E 011°14'.

Length 79 m; draft 3.5 m.

Type: Cargo ship. MMSI: 220439000.

Date/timePositionNaut miles runAvg speedWind from/ knotsBaromVisibWave heightAir tempDewpointWater temp
2014-Sep-18 06:18N 56°25' E 011°14'26 8.2
2014-Sep-18 03:07N 56°19' E 012°00'4 7.9
2014-Sep-18 02:33N 56°17' E 012°08'8 8.5
2014-Sep-18 01:33N 56°12' E 012°20'1010.2
2014-Sep-18 00:33N 56°06' E 012°34'9 9.2
2014-Sep-17 23:33N 55°58' E 012°43'8 8.5
2014-Sep-17 22:33N 55°50' E 012°45'9 8.5
2014-Sep-17 21:33N 55°41' E 012°41'9 9.0
2014-Sep-17 20:33N 55°32' E 012°43'8 7.5
2014-Sep-17 19:33N 55°26' E 012°37'8 7.7
2014-Sep-17 18:33N 55°18' E 012°34'7 6.8
2014-Sep-17 17:33N 55°13' E 012°26'8 7.4
2014-Sep-17 16:26N 55°12' E 012°11'2 0.2
2014-Sep-17 07:25N 55°13' E 012°10'0 0.0
2014-Sep-16 20:09N 55°13' E 012°10'0 0.0
2014-Sep-16 19:24N 55°13' E 012°10'0 0.0
2014-Sep-16 18:33N 55°13' E 012°10'0 0.0
2014-Sep-14 22:30N 55°13' E 012°10'0 0.0
2014-Sep-14 19:12N 55°13' E 012°10'3 0.2
2014-Sep-14 05:19N 55°11' E 012°14'3 3.9
2014-Sep-14 04:32N 55°11' E 012°19'1 0.9
2014-Sep-14 03:28N 55°10' E 012°18'4 4.5
2014-Sep-14 02:32N 55°09' E 012°25'5 4.7
2014-Sep-14 01:33N 55°09' E 012°33'186 6.2
2014-Sep-12 19:31N 56°51' E 017°10'7 7.6
2014-Sep-12 18:33N 56°58' E 017°15'8 7.8
2014-Sep-12 17:33N 57°05' E 017°20'8 8.5
2014-Sep-12 16:33N 57°13' E 017°26'8 8.4
2014-Sep-12 15:33N 57°21' E 017°33'8 8.0
2014-Sep-12 14:33N 57°28' E 017°39'  
2014-Sep-09 03:04N 55°33' E 015°19'5 8.2
2014-Sep-09 02:27N 55°31' E 015°11'7 8.3
2014-Sep-09 01:33N 55°28' E 014°59'8 8.3
2014-Sep-09 00:33N 55°25' E 014°46'8 8.1
2014-Sep-08 23:33N 55°19' E 014°35'8 7.9
2014-Sep-08 22:33N 55°13' E 014°27'8 7.7
2014-Sep-08 21:33N 55°10' E 014°14'8 8.2
2014-Sep-08 20:33N 55°10' E 013°60'8 7.8
2014-Sep-08 19:33N 55°10' E 013°46'38 7.6
2014-Sep-08 14:33N 55°06' E 012°40'  
Track history (hours):
 
Tides and Currents Weather Stations Pressure Air Temp Water Temp Dewpoint Dewpoint Depression Visibility Wind Speed Wind Dir Waves Ship Positions

Dan Viking

Last reported at 2014-Sep-18 06:18 UTC. Time now 2014-Sep-18 11:37 UTC.
Position N 56°25' E 011°14'.

Length 79 m; draft 3.5 m.

Type: Cargo ship. MMSI: 220439000.

Date/timePositionNaut miles runAvg speedWind from/ knotsBaromVisibWave heightAir tempDewpointWater temp
2014-Sep-18 06:18N 56°25' E 011°14'26 8.2
2014-Sep-18 03:07N 56°19' E 012°00'4 7.9
2014-Sep-18 02:33N 56°17' E 012°08'8 8.5
2014-Sep-18 01:33N 56°12' E 012°20'1010.2
2014-Sep-18 00:33N 56°06' E 012°34'9 9.2
2014-Sep-17 23:33N 55°58' E 012°43'8 8.5
2014-Sep-17 22:33N 55°50' E 012°45'9 8.5
2014-Sep-17 21:33N 55°41' E 012°41'9 9.0
2014-Sep-17 20:33N 55°32' E 012°43'8 7.5
2014-Sep-17 19:33N 55°26' E 012°37'8 7.7
2014-Sep-17 18:33N 55°18' E 012°34'7 6.8
2014-Sep-17 17:33N 55°13' E 012°26'8 7.4
2014-Sep-17 16:26N 55°12' E 012°11'2 0.2
2014-Sep-17 07:25N 55°13' E 012°10'0 0.0
2014-Sep-16 20:09N 55°13' E 012°10'0 0.0
2014-Sep-16 19:24N 55°13' E 012°10'0 0.0
2014-Sep-16 18:33N 55°13' E 012°10'0 0.0
2014-Sep-14 22:30N 55°13' E 012°10'0 0.0
2014-Sep-14 19:12N 55°13' E 012°10'3 0.2
2014-Sep-14 05:19N 55°11' E 012°14'3 3.9
2014-Sep-14 04:32N 55°11' E 012°19'1 0.9
2014-Sep-14 03:28N 55°10' E 012°18'4 4.5
2014-Sep-14 02:32N 55°09' E 012°25'5 4.7
2014-Sep-14 01:33N 55°09' E 012°33'186 6.2
2014-Sep-12 19:31N 56°51' E 017°10'7 7.6
2014-Sep-12 18:33N 56°58' E 017°15'8 7.8
2014-Sep-12 17:33N 57°05' E 017°20'8 8.5
2014-Sep-12 16:33N 57°13' E 017°26'8 8.4
2014-Sep-12 15:33N 57°21' E 017°33'8 8.0
2014-Sep-12 14:33N 57°28' E 017°39'  
2014-Sep-09 03:04N 55°33' E 015°19'5 8.2
2014-Sep-09 02:27N 55°31' E 015°11'7 8.3
2014-Sep-09 01:33N 55°28' E 014°59'8 8.3
2014-Sep-09 00:33N 55°25' E 014°46'8 8.1
2014-Sep-08 23:33N 55°19' E 014°35'8 7.9
2014-Sep-08 22:33N 55°13' E 014°27'8 7.7
2014-Sep-08 21:33N 55°10' E 014°14'8 8.2
2014-Sep-08 20:33N 55°10' E 013°60'8 7.8
2014-Sep-08 19:33N 55°10' E 013°46'38 7.6
2014-Sep-08 14:33N 55°06' E 012°40'  

Dump ship's entire track history